Batterdale, United Kingdom
Current Conditions -  °F | °C
As of 3:20 AM on Saturday 20 Dec 2014 (Local Time) from EGGW Reporting Station
Broken Clouds Broken Clouds  
Wind Chill: 35°   Ceiling: 3900
Heat Index: 43°   Visibility: 6mi
Dew Point: 36°   Wind: 15mph
Humidity: 76%   Direction: 240°WSW
Pressure: 30.18"   Gusts: NA
Location:  51.76°N, 0.21°W
Report Text: EGGW 200320Z 24013KT 9999 BKN039 06/02 Q1022
Loading
Personal Weather Stations






























Interactive Weather Map New forecast layout! Learn more

10-Day Weather Forecast

Advertisements
Track Severe Weather on mobile